Time;durP1;ratioP1;P1;durP2;ratioP2;P2;SDS_P1;SDS_P2;PMS_P1;PMS_P2;Temp;Humidity;BMP_temperature;BMP_pressure;BME280_temperature;BME280_humidity;BME280_pressure;Samples;Min_cycle;Max_cycle;Signal;HPM_P1;HPM_P2
2023/08/05 00:00:12;;;;;;;;;;;17.00;99.90;;;;;;5063758;28;20431;-89
2023/08/05 00:02:38;;;;;;;;;;;17.00;99.90;;;;;;5063685;28;19935;-88
2023/08/05 00:05:04;;;;;;;;;;;17.00;99.90;;;;;;5061324;28;20022;-87
2023/08/05 00:07:34;;;;;;;;;;;17.00;99.90;;;;;;5062583;28;20379;-87
2023/08/05 00:10:00;;;;;;;;;;;16.90;99.90;;;;;;5060010;28;20458;-91
2023/08/05 00:12:27;;;;;;;;;;;16.90;99.90;;;;;;5048108;28;19913;-88
2023/08/05 00:14:52;;;;;;;;;;;16.80;99.90;;;;;;5060626;28;20051;-90
2023/08/05 00:17:22;;;;;;;;;;;16.80;99.90;;;;;;5062322;28;20341;-88
2023/08/05 00:19:47;;;;;;;;;;;16.80;99.90;;;;;;5059133;28;19920;-89
2023/08/05 00:22:17;;;;;;;;;;;16.80;99.90;;;;;;5057831;28;19923;-90
2023/08/05 00:24:46;;;;;;;;;;;16.90;99.90;;;;;;5058247;28;19908;-90
2023/08/05 00:27:19;;;;;;;;;;;16.90;99.90;;;;;;5058102;28;20367;-89
2023/08/05 00:29:53;;;;;;;;;;;16.90;99.90;;;;;;5059639;28;19916;-88
2023/08/05 00:32:24;;;;;;;;;;;16.80;99.90;;;;;;5060850;28;19916;-90
2023/08/05 00:34:50;;;;;;;;;;;16.90;99.90;;;;;;5062720;28;19913;-90
2023/08/05 00:37:27;;;;;;;;;;;16.80;99.90;;;;;;5064000;28;19917;-88
2023/08/05 00:39:53;;;;;;;;;;;16.80;99.90;;;;;;5058130;28;20356;-91
2023/08/05 00:42:23;;;;;;;;;;;16.80;99.90;;;;;;5059804;28;19913;-89
2023/08/05 00:44:48;;;;;;;;;;;16.80;99.90;;;;;;5061399;28;19912;-89
2023/08/05 00:47:16;;;;;;;;;;;16.80;99.90;;;;;;5062334;28;20422;-89
2023/08/05 00:49:43;;;;;;;;;;;16.70;99.90;;;;;;5064049;28;19966;-89
2023/08/05 00:52:09;;;;;;;;;;;16.80;99.90;;;;;;5058545;28;19917;-90
2023/08/05 00:54:36;;;;;;;;;;;16.80;99.90;;;;;;5055222;28;19931;-88
2023/08/05 00:57:03;;;;;;;;;;;16.80;99.90;;;;;;5061389;28;20015;-88
2023/08/05 00:59:31;;;;;;;;;;;16.90;99.90;;;;;;5062381;28;19956;-88
2023/08/05 01:01:59;;;;;;;;;;;16.90;99.90;;;;;;5057977;28;19948;-89
2023/08/05 01:04:27;;;;;;;;;;;16.80;99.90;;;;;;5060392;28;19913;-89
2023/08/05 01:06:53;;;;;;;;;;;16.90;99.90;;;;;;5060444;28;19946;-90
2023/08/05 01:09:22;;;;;;;;;;;16.90;99.90;;;;;;5060869;28;20007;-89
2023/08/05 01:11:49;;;;;;;;;;;16.90;99.90;;;;;;5063512;28;20406;-90
2023/08/05 01:14:17;;;;;;;;;;;16.90;99.90;;;;;;5057867;28;19915;-90
2023/08/05 01:16:46;;;;;;;;;;;16.90;99.90;;;;;;5062107;28;19925;-88
2023/08/05 01:19:21;;;;;;;;;;;16.90;99.90;;;;;;5059619;28;19909;-89
2023/08/05 01:21:50;;;;;;;;;;;16.90;99.90;;;;;;5063028;28;20015;-88
2023/08/05 01:24:15;;;;;;;;;;;16.90;99.90;;;;;;5058512;28;20007;-88
2023/08/05 01:26:42;;;;;;;;;;;16.80;99.90;;;;;;5060096;28;20368;-89
2023/08/05 01:29:07;;;;;;;;;;;16.80;99.90;;;;;;5059941;28;19970;-89
2023/08/05 01:31:40;;;;;;;;;;;16.80;99.90;;;;;;5062517;28;19909;-90
2023/08/05 01:34:08;;;;;;;;;;;16.80;99.90;;;;;;5060619;28;20003;-91
2023/08/05 01:36:34;;;;;;;;;;;16.70;99.90;;;;;;5058259;28;20008;-89
2023/08/05 01:39:00;;;;;;;;;;;16.60;99.90;;;;;;5060334;28;20003;-89
2023/08/05 01:41:26;;;;;;;;;;;16.60;99.90;;;;;;5058100;28;19913;-89
2023/08/05 01:43:53;;;;;;;;;;;16.50;99.90;;;;;;5059979;28;19912;-89
2023/08/05 01:46:18;;;;;;;;;;;16.50;99.90;;;;;;5073150;28;19971;-89
2023/08/05 01:48:44;;;;;;;;;;;16.50;99.90;;;;;;5060252;28;19916;-89
2023/08/05 01:51:11;;;;;;;;;;;16.40;99.90;;;;;;5059505;28;19909;-86
2023/08/05 01:53:40;;;;;;;;;;;16.40;99.90;;;;;;5059703;28;19928;-90
2023/08/05 01:56:09;;;;;;;;;;;16.40;99.90;;;;;;5061271;28;19927;-89
2023/08/05 01:58:40;;;;;;;;;;;16.30;99.90;;;;;;5058943;28;19909;-89
2023/08/05 02:01:07;;;;;;;;;;;16.30;99.90;;;;;;5052695;28;19920;-90
2023/08/05 02:03:34;;;;;;;;;;;16.30;99.90;;;;;;5046115;28;20276;-88
2023/08/05 02:06:02;;;;;;;;;;;16.30;99.90;;;;;;5054960;28;19925;-88
2023/08/05 02:08:37;;;;;;;;;;;16.30;99.90;;;;;;5058434;28;19936;-89
2023/08/05 02:11:05;;;;;;;;;;;16.30;99.90;;;;;;5050485;28;19909;-88
2023/08/05 02:13:38;;;;;;;;;;;16.30;99.90;;;;;;5056298;28;19955;-88
2023/08/05 02:16:04;;;;;;;;;;;16.30;99.90;;;;;;5060809;28;20011;-89
2023/08/05 02:18:30;;;;;;;;;;;16.30;99.90;;;;;;5059537;28;19908;-88
2023/08/05 02:20:56;;;;;;;;;;;16.40;99.90;;;;;;5060384;28;19916;-90
2023/08/05 02:23:31;;;;;;;;;;;16.40;99.90;;;;;;5061282;28;19973;-89
2023/08/05 02:26:01;;;;;;;;;;;16.40;99.90;;;;;;5060914;28;20384;-89
2023/08/05 02:28:28;;;;;;;;;;;16.50;99.90;;;;;;5060605;28;19935;-89
2023/08/05 02:30:57;;;;;;;;;;;16.50;99.90;;;;;;5059189;28;19915;-90
2023/08/05 02:33:26;;;;;;;;;;;16.50;99.90;;;;;;5063462;28;20407;-90
2023/08/05 02:36:05;;;;;;;;;;;16.50;99.90;;;;;;5059618;28;20256;-88
2023/08/05 02:38:36;;;;;;;;;;;16.50;99.90;;;;;;5060446;28;19913;-89
2023/08/05 02:41:05;;;;;;;;;;;16.50;99.90;;;;;;5060735;28;19924;-89
2023/08/05 02:43:30;;;;;;;;;;;16.50;99.90;;;;;;5062238;28;20219;-88
2023/08/05 02:45:57;;;;;;;;;;;16.50;99.90;;;;;;5061417;28;19924;-89
2023/08/05 02:48:24;;;;;;;;;;;16.50;99.90;;;;;;5060329;28;20368;-90
2023/08/05 02:50:51;;;;;;;;;;;16.50;99.90;;;;;;5053345;28;19920;-89
2023/08/05 02:53:19;;;;;;;;;;;16.50;99.90;;;;;;5058383;28;20451;-90
2023/08/05 02:55:45;;;;;;;;;;;16.50;99.90;;;;;;5062384;28;20000;-89
2023/08/05 02:58:10;;;;;;;;;;;16.40;99.90;;;;;;5059405;28;19921;-89
2023/08/05 03:00:37;;;;;;;;;;;16.30;99.90;;;;;;5059601;28;19916;-90
2023/08/05 03:03:02;;;;;;;;;;;16.30;99.90;;;;;;5059277;28;19919;-89
2023/08/05 03:05:28;;;;;;;;;;;16.20;99.90;;;;;;5057953;28;19908;-88
2023/08/05 03:07:55;;;;;;;;;;;16.10;99.90;;;;;;5061802;28;20023;-89
2023/08/05 03:10:21;;;;;;;;;;;16.10;99.90;;;;;;5058385;28;19963;-88
2023/08/05 03:12:57;;;;;;;;;;;16.10;99.90;;;;;;5060118;28;20792;-89
2023/08/05 03:15:26;;;;;;;;;;;16.00;99.90;;;;;;5069956;28;19916;-87
2023/08/05 03:17:58;;;;;;;;;;;15.90;99.90;;;;;;5070843;28;19975;-86
2023/08/05 03:20:25;;;;;;;;;;;15.90;99.90;;;;;;5074311;28;19908;-87
2023/08/05 03:22:57;;;;;;;;;;;15.90;99.90;;;;;;5067236;28;19932;-88
2023/08/05 03:25:26;;;;;;;;;;;15.80;99.90;;;;;;5064857;28;19970;-89
2023/08/05 03:27:54;;;;;;;;;;;15.80;99.90;;;;;;5064698;28;20015;-88
2023/08/05 03:30:22;;;;;;;;;;;15.80;99.90;;;;;;5043939;28;19932;-88
2023/08/05 03:32:48;;;;;;;;;;;15.70;99.90;;;;;;5047464;28;19932;-89
2023/08/05 03:35:19;;;;;;;;;;;15.70;99.90;;;;;;5057506;28;19925;-88
2023/08/05 03:37:47;;;;;;;;;;;15.70;99.90;;;;;;5058128;28;19955;-89
2023/08/05 03:40:14;;;;;;;;;;;15.60;99.90;;;;;;5061757;28;19944;-89
2023/08/05 03:42:49;;;;;;;;;;;15.60;99.90;;;;;;5060115;28;19967;-89
2023/08/05 03:45:19;;;;;;;;;;;15.60;99.90;;;;;;5061134;28;19920;-90
2023/08/05 03:47:49;;;;;;;;;;;15.60;99.90;;;;;;5062372;28;20051;-89
2023/08/05 03:50:21;;;;;;;;;;;15.50;99.90;;;;;;5061243;28;19926;-90
2023/08/05 03:52:54;;;;;;;;;;;15.40;99.90;;;;;;5058859;28;19925;-90
2023/08/05 03:55:24;;;;;;;;;;;15.40;99.90;;;;;;5061722;28;20000;-88
2023/08/05 03:57:49;;;;;;;;;;;15.40;99.90;;;;;;5059288;28;20383;-89
2023/08/05 04:00:15;;;;;;;;;;;15.40;99.90;;;;;;5060895;28;19913;-89
2023/08/05 04:02:46;;;;;;;;;;;15.40;99.90;;;;;;5061730;28;19917;-88
2023/08/05 04:05:12;;;;;;;;;;;15.40;99.90;;;;;;5059955;28;19908;-88
2023/08/05 04:07:38;;;;;;;;;;;15.40;99.90;;;;;;5063966;28;19916;-89
2023/08/05 04:10:05;;;;;;;;;;;15.50;99.90;;;;;;5058326;28;19946;-89
2023/08/05 04:12:33;;;;;;;;;;;15.50;99.90;;;;;;5062388;28;19919;-88
2023/08/05 04:14:59;;;;;;;;;;;15.60;99.90;;;;;;5055673;28;19920;-89
2023/08/05 04:17:24;;;;;;;;;;;15.70;99.90;;;;;;5049991;28;19927;-89
2023/08/05 04:19:50;;;;;;;;;;;15.70;99.90;;;;;;5057262;28;19924;-88
2023/08/05 04:22:22;;;;;;;;;;;15.80;99.90;;;;;;5062179;28;20359;-89
2023/08/05 04:24:47;;;;;;;;;;;15.90;99.90;;;;;;5063338;28;19916;-89
2023/08/05 04:27:13;;;;;;;;;;;15.90;99.90;;;;;;5062299;28;19920;-88
2023/08/05 04:29:38;;;;;;;;;;;16.00;99.90;;;;;;5060762;28;19929;-88
2023/08/05 04:32:06;;;;;;;;;;;16.00;99.90;;;;;;5047108;28;20372;-89
2023/08/05 04:34:37;;;;;;;;;;;16.00;99.90;;;;;;5057709;28;19917;-87
2023/08/05 04:37:18;;;;;;;;;;;16.00;99.90;;;;;;5061920;28;19955;-88
2023/08/05 04:39:46;;;;;;;;;;;16.00;99.90;;;;;;5063351;28;20004;-88
2023/08/05 04:42:15;;;;;;;;;;;16.00;99.90;;;;;;5059307;28;19934;-88
2023/08/05 04:44:41;;;;;;;;;;;16.00;99.90;;;;;;5060598;28;19932;-87
2023/08/05 04:47:10;;;;;;;;;;;15.90;99.90;;;;;;5058924;28;20257;-88
2023/08/05 04:49:36;;;;;;;;;;;15.90;99.90;;;;;;5073130;28;20008;-86
2023/08/05 04:52:05;;;;;;;;;;;15.90;99.90;;;;;;5062744;28;20049;-87
2023/08/05 04:54:35;;;;;;;;;;;15.90;99.90;;;;;;5055375;28;20036;-86
2023/08/05 04:57:03;;;;;;;;;;;15.90;99.90;;;;;;5057611;28;19923;-86
2023/08/05 04:59:30;;;;;;;;;;;16.00;99.90;;;;;;5060061;28;19927;-85
2023/08/05 05:01:58;;;;;;;;;;;16.00;99.90;;;;;;5057443;28;19916;-86
2023/08/05 05:04:25;;;;;;;;;;;16.00;99.90;;;;;;5058435;28;20020;-84
2023/08/05 05:06:51;;;;;;;;;;;16.00;99.90;;;;;;5056981;28;19928;-85
2023/08/05 05:09:18;;;;;;;;;;;16.00;99.90;;;;;;5045422;28;19936;-86
2023/08/05 05:11:44;;;;;;;;;;;16.00;99.90;;;;;;5058613;28;19926;-86
2023/08/05 05:14:10;;;;;;;;;;;16.10;99.90;;;;;;5062073;28;19916;-85
2023/08/05 05:16:36;;;;;;;;;;;16.00;99.90;;;;;;5059695;28;19970;-85
2023/08/05 05:19:04;;;;;;;;;;;16.00;99.90;;;;;;5057667;28;20315;-87
2023/08/05 05:21:30;;;;;;;;;;;16.00;99.90;;;;;;5055939;28;19974;-85
2023/08/05 05:23:55;;;;;;;;;;;16.00;99.90;;;;;;5061474;28;19920;-86
2023/08/05 05:26:21;;;;;;;;;;;16.10;99.90;;;;;;5057784;28;19909;-85
2023/08/05 05:28:48;;;;;;;;;;;16.10;99.90;;;;;;5054956;28;21902;-85
2023/08/05 05:31:14;;;;;;;;;;;16.10;99.90;;;;;;5057159;28;20015;-86
2023/08/05 05:33:40;;;;;;;;;;;16.10;99.90;;;;;;5061535;28;20003;-85
2023/08/05 05:36:06;;;;;;;;;;;16.10;99.90;;;;;;5057290;28;19916;-85
2023/08/05 05:38:34;;;;;;;;;;;16.20;99.90;;;;;;5056298;28;19916;-86
2023/08/05 05:41:02;;;;;;;;;;;16.20;99.90;;;;;;5058877;28;19924;-86
2023/08/05 05:43:27;;;;;;;;;;;16.20;99.90;;;;;;5060187;28;19962;-86
2023/08/05 05:45:55;;;;;;;;;;;16.20;99.90;;;;;;5059715;28;20301;-87
2023/08/05 05:48:25;;;;;;;;;;;16.20;99.90;;;;;;5057464;28;20296;-86
2023/08/05 05:50:54;;;;;;;;;;;16.30;99.90;;;;;;5059916;28;19913;-86
2023/08/05 05:53:19;;;;;;;;;;;16.30;99.90;;;;;;5056736;28;19987;-86
2023/08/05 05:55:45;;;;;;;;;;;16.30;99.90;;;;;;5060387;28;20011;-87
2023/08/05 05:58:11;;;;;;;;;;;16.30;99.90;;;;;;5060357;28;19909;-88
2023/08/05 06:00:38;;;;;;;;;;;16.30;99.90;;;;;;5059928;28;19917;-88
2023/08/05 06:03:05;;;;;;;;;;;16.30;99.90;;;;;;5061592;28;20303;-88
2023/08/05 06:05:30;;;;;;;;;;;16.40;99.90;;;;;;5056371;28;20051;-87
2023/08/05 06:07:56;;;;;;;;;;;16.40;99.90;;;;;;5057500;28;19974;-87
2023/08/05 06:10:21;;;;;;;;;;;16.40;99.90;;;;;;5056170;28;19932;-87
2023/08/05 06:12:47;;;;;;;;;;;16.50;99.90;;;;;;5057392;28;20348;-87
2023/08/05 06:15:21;;;;;;;;;;;16.50;99.90;;;;;;5053949;28;19916;-88
2023/08/05 06:17:51;;;;;;;;;;;16.60;99.90;;;;;;5052911;28;19917;-88
2023/08/05 06:20:20;;;;;;;;;;;16.60;99.90;;;;;;5056635;28;20042;-86
2023/08/05 06:23:06;;;;;;;;;;;16.60;99.90;;;;;;5056070;28;19927;-87
2023/08/05 06:25:35;;;;;;;;;;;16.70;99.90;;;;;;5053643;28;19927;-87
2023/08/05 06:28:09;;;;;;;;;;;16.70;99.90;;;;;;5054542;28;19924;-86
2023/08/05 06:30:43;;;;;;;;;;;16.80;99.90;;;;;;5055832;28;20323;-87
2023/08/05 06:33:09;;;;;;;;;;;16.90;99.90;;;;;;5055272;28;19955;-87
2023/08/05 06:35:37;;;;;;;;;;;17.00;99.90;;;;;;5069062;28;20062;-88
2023/08/05 06:38:06;;;;;;;;;;;17.00;99.90;;;;;;5054831;28;20363;-87
2023/08/05 06:40:40;;;;;;;;;;;17.00;99.90;;;;;;5055511;28;20003;-86
2023/08/05 06:43:11;;;;;;;;;;;17.00;99.90;;;;;;5055464;28;19939;-86
2023/08/05 06:45:50;;;;;;;;;;;17.00;99.90;;;;;;5058190;28;19969;-87
2023/08/05 06:48:23;;;;;;;;;;;17.10;99.90;;;;;;5069449;28;19991;-86
2023/08/05 06:50:55;;;;;;;;;;;17.10;99.90;;;;;;5058024;28;19994;-88
2023/08/05 06:53:24;;;;;;;;;;;17.10;99.90;;;;;;5054880;28;20011;-86
2023/08/05 06:56:04;;;;;;;;;;;17.10;99.90;;;;;;5057210;28;19920;-87
2023/08/05 06:58:33;;;;;;;;;;;17.20;99.90;;;;;;5054942;28;19952;-89
2023/08/05 07:01:04;;;;;;;;;;;17.20;99.90;;;;;;5054536;28;19916;-86
2023/08/05 07:03:37;;;;;;;;;;;17.20;99.90;;;;;;5057818;28;19927;-87
2023/08/05 07:06:03;;;;;;;;;;;17.20;99.90;;;;;;5044014;28;19925;-87
2023/08/05 07:08:37;;;;;;;;;;;17.20;99.90;;;;;;5058234;28;19935;-86
2023/08/05 07:11:04;;;;;;;;;;;17.30;99.90;;;;;;5058287;28;20395;-86
2023/08/05 07:13:36;;;;;;;;;;;17.30;99.90;;;;;;5057950;28;19913;-86
2023/08/05 07:16:11;;;;;;;;;;;17.30;99.90;;;;;;5055641;28;19927;-86
2023/08/05 07:18:59;;;;;;;;;;;17.20;99.90;;;;;;5043227;28;19924;-87
2023/08/05 07:21:38;;;;;;;;;;;17.20;99.90;;;;;;5054348;28;19923;-87
2023/08/05 07:24:10;;;;;;;;;;;17.30;99.90;;;;;;5055220;28;19954;-87
2023/08/05 07:26:46;;;;;;;;;;;17.50;99.90;;;;;;5055389;28;19995;-87
2023/08/05 07:29:15;;;;;;;;;;;17.60;99.90;;;;;;5055851;28;19968;-87
2023/08/05 07:31:43;;;;;;;;;;;17.70;99.90;;;;;;5055013;28;20026;-87
2023/08/05 07:34:12;;;;;;;;;;;17.80;99.90;;;;;;5045304;28;19912;-87
2023/08/05 07:36:38;;;;;;;;;;;18.10;99.90;;;;;;5055250;28;20000;-87
2023/08/05 07:39:08;;;;;;;;;;;18.30;99.90;;;;;;5054677;28;19999;-87
2023/08/05 07:41:36;;;;;;;;;;;18.60;99.90;;;;;;5056241;28;19917;-88
2023/08/05 07:44:03;;;;;;;;;;;18.70;99.90;;;;;;5057099;28;20337;-87
2023/08/05 07:46:35;;;;;;;;;;;18.70;99.90;;;;;;5058210;28;19923;-87
2023/08/05 07:49:07;;;;;;;;;;;18.70;99.90;;;;;;5055411;28;19924;-87
2023/08/05 07:51:35;;;;;;;;;;;18.80;99.90;;;;;;5054876;28;19947;-87
2023/08/05 07:54:03;;;;;;;;;;;18.80;99.90;;;;;;5059031;28;19927;-87
2023/08/05 07:56:33;;;;;;;;;;;18.90;99.90;;;;;;5045329;28;19916;-88
2023/08/05 07:59:03;;;;;;;;;;;18.90;99.90;;;;;;5059245;28;20011;-88
2023/08/05 08:01:35;;;;;;;;;;;18.90;99.90;;;;;;5061255;28;19917;-86
2023/08/05 08:04:07;;;;;;;;;;;18.80;99.90;;;;;;5061766;28;19920;-88
2023/08/05 08:06:35;;;;;;;;;;;18.60;99.90;;;;;;5043880;28;19925;-87
2023/08/05 08:09:05;;;;;;;;;;;18.60;99.90;;;;;;5058062;28;19947;-87
2023/08/05 08:11:42;;;;;;;;;;;18.60;99.90;;;;;;5042262;28;19920;-87
2023/08/05 08:14:19;;;;;;;;;;;18.60;99.90;;;;;;5073015;28;20007;-87
2023/08/05 08:16:49;;;;;;;;;;;18.60;99.90;;;;;;5041084;28;19920;-87
2023/08/05 08:19:18;;;;;;;;;;;18.70;99.90;;;;;;5066843;28;19982;-88
2023/08/05 08:21:50;;;;;;;;;;;18.80;99.90;;;;;;5056993;28;19991;-88
2023/08/05 08:24:18;;;;;;;;;;;18.90;99.90;;;;;;5058416;28;19998;-88
2023/08/05 08:26:48;;;;;;;;;;;19.00;99.90;;;;;;5050595;28;20011;-87
2023/08/05 08:29:16;;;;;;;;;;;19.10;99.90;;;;;;5063463;28;20858;-90
2023/08/05 08:31:42;;;;;;;;;;;19.20;99.90;;;;;;5069742;28;20678;-93
2023/08/05 08:34:07;;;;;;;;;;;19.20;99.90;;;;;;5071530;28;19923;-91
2023/08/05 08:36:33;;;;;;;;;;;19.30;99.90;;;;;;5069137;28;19909;-93
2023/08/05 08:39:06;;;;;;;;;;;19.50;99.90;;;;;;5068174;28;19916;-89
2023/08/05 08:41:36;;;;;;;;;;;19.60;99.90;;;;;;5064921;28;20003;-89
2023/08/05 08:44:05;;;;;;;;;;;19.70;99.90;;;;;;5062616;28;19970;-90
2023/08/05 08:46:30;;;;;;;;;;;19.60;99.90;;;;;;5060850;28;20228;-88
2023/08/05 08:48:56;;;;;;;;;;;19.60;99.90;;;;;;5055967;28;19912;-89
2023/08/05 08:51:23;;;;;;;;;;;19.50;99.90;;;;;;5055028;28;19917;-88
2023/08/05 08:53:48;;;;;;;;;;;19.50;99.90;;;;;;5058925;28;20372;-87
2023/08/05 08:56:17;;;;;;;;;;;19.50;99.90;;;;;;5058863;28;19912;-88
2023/08/05 08:58:42;;;;;;;;;;;19.50;99.90;;;;;;5059437;28;19921;-86
2023/08/05 09:01:16;;;;;;;;;;;19.50;99.90;;;;;;5077184;28;19908;-88
2023/08/05 09:03:42;;;;;;;;;;;19.60;99.90;;;;;;5057820;28;19919;-88
2023/08/05 09:06:11;;;;;;;;;;;19.60;99.90;;;;;;5042089;28;19921;-87
2023/08/05 09:08:36;;;;;;;;;;;19.70;99.90;;;;;;5059654;28;20067;-87
2023/08/05 09:11:02;;;;;;;;;;;19.70;99.90;;;;;;5060550;28;19991;-87
2023/08/05 09:13:28;;;;;;;;;;;19.90;99.90;;;;;;5066986;28;19916;-88
2023/08/05 09:15:55;;;;;;;;;;;20.10;99.90;;;;;;5065439;28;19913;-87
2023/08/05 09:18:21;;;;;;;;;;;20.20;99.90;;;;;;5063359;28;19999;-87
2023/08/05 09:20:49;;;;;;;;;;;20.50;99.90;;;;;;5062347;28;19920;-89
2023/08/05 09:23:17;;;;;;;;;;;20.60;99.90;;;;;;5063326;28;20284;-87
2023/08/05 09:25:48;;;;;;;;;;;20.70;99.90;;;;;;5077851;28;19920;-87
2023/08/05 09:28:27;;;;;;;;;;;20.70;99.90;;;;;;5049057;28;19920;-88
2023/08/05 09:31:13;;;;;;;;;;;20.80;99.90;;;;;;5053843;28;20026;-89
2023/08/05 09:33:55;;;;;;;;;;;21.00;99.90;;;;;;5056811;28;19966;-87
2023/08/05 09:36:25;;;;;;;;;;;21.30;99.90;;;;;;5063668;28;20317;-89
2023/08/05 09:39:00;;;;;;;;;;;21.50;99.90;;;;;;5064133;28;19913;-87
2023/08/05 09:41:28;;;;;;;;;;;21.80;99.90;;;;;;5061036;28;19921;-88
2023/08/05 09:43:54;;;;;;;;;;;22.20;99.90;;;;;;5062469;28;19908;-89
2023/08/05 09:46:41;;;;;;;;;;;22.30;99.90;;;;;;5070674;28;19912;-91
2023/08/05 09:49:22;;;;;;;;;;;22.30;99.90;;;;;;5073148;28;19960;-91
2023/08/05 09:51:51;;;;;;;;;;;22.10;99.90;;;;;;5078167;28;19912;-92
2023/08/05 09:54:18;;;;;;;;;;;22.30;99.90;;;;;;5069225;28;19916;-87
2023/08/05 09:56:46;;;;;;;;;;;22.40;99.90;;;;;;5073646;28;19909;-88
2023/08/05 09:59:13;;;;;;;;;;;22.30;99.90;;;;;;5077318;28;19917;-88
2023/08/05 10:01:39;;;;;;;;;;;23.00;99.90;;;;;;5074672;28;19962;-88
2023/08/05 10:04:05;;;;;;;;;;;23.20;99.90;;;;;;5073122;28;19931;-87
2023/08/05 10:06:31;;;;;;;;;;;23.30;99.90;;;;;;5061129;28;19938;-89
2023/08/05 10:09:00;;;;;;;;;;;23.50;99.90;;;;;;5059172;28;20275;-89
2023/08/05 10:11:28;;;;;;;;;;;23.30;99.90;;;;;;5060386;28;19986;-88
2023/08/05 10:13:54;;;;;;;;;;;23.30;99.90;;;;;;5060056;28;19990;-88
2023/08/05 10:16:26;;;;;;;;;;;23.60;99.90;;;;;;5058439;28;19920;-88
2023/08/05 10:19:06;;;;;;;;;;;23.50;99.90;;;;;;5051600;28;20537;-89
2023/08/05 10:21:41;;;;;;;;;;;23.60;99.90;;;;;;5042573;28;19920;-88
2023/08/05 10:24:09;;;;;;;;;;;23.40;99.90;;;;;;5061335;28;19923;-88
2023/08/05 10:26:49;;;;;;;;;;;22.90;99.90;;;;;;5060699;28;19920;-89
2023/08/05 10:29:26;;;;;;;;;;;22.30;99.90;;;;;;5057239;28;19916;-90
2023/08/05 10:32:06;;;;;;;;;;;22.00;99.90;;;;;;5063138;28;19927;-89
2023/08/05 10:34:32;;;;;;;;;;;21.80;99.90;;;;;;5046243;28;19917;-89
2023/08/05 10:37:00;;;;;;;;;;;21.60;99.90;;;;;;5063695;28;20366;-89
2023/08/05 10:39:42;;;;;;;;;;;21.70;99.90;;;;;;5058226;28;20380;-89
2023/08/05 10:42:17;;;;;;;;;;;21.90;99.90;;;;;;5061546;28;20062;-89
2023/08/05 10:44:50;;;;;;;;;;;22.70;99.90;;;;;;5058537;28;21117;-88
2023/08/05 10:47:24;;;;;;;;;;;23.70;99.90;;;;;;5058689;28;19920;-91
2023/08/05 10:49:58;;;;;;;;;;;24.10;99.90;;;;;;5059489;28;19928;-90
2023/08/05 10:52:26;;;;;;;;;;;23.90;99.90;;;;;;5060552;28;19919;-89
2023/08/05 10:54:58;;;;;;;;;;;23.60;99.90;;;;;;5045253;28;19921;-90
2023/08/05 10:57:54;;;;;;;;;;;23.10;99.90;;;;;;5057702;28;20302;-90
2023/08/05 11:00:24;;;;;;;;;;;22.70;99.90;;;;;;5049527;28;19908;-89
2023/08/05 11:03:12;;;;;;;;;;;22.20;99.90;;;;;;5053887;28;20585;-90
2023/08/05 11:05:43;;;;;;;;;;;22.00;99.90;;;;;;5061854;28;19985;-91
2023/08/05 11:08:21;;;;;;;;;;;22.10;99.90;;;;;;5054812;28;19916;-89
2023/08/05 11:10:52;;;;;;;;;;;22.20;99.90;;;;;;5054483;28;19951;-90
2023/08/05 11:13:24;;;;;;;;;;;22.50;99.90;;;;;;5061858;28;20417;-89
2023/08/05 11:16:26;;;;;;;;;;;22.90;99.90;;;;;;5046949;28;20286;-89
2023/08/05 11:18:56;;;;;;;;;;;23.30;99.90;;;;;;5047005;28;20003;-90
2023/08/05 11:21:42;;;;;;;;;;;23.60;99.90;;;;;;5058838;28;20005;-89
2023/08/05 11:24:20;;;;;;;;;;;23.70;99.90;;;;;;5042459;28;19917;-90
2023/08/05 11:26:51;;;;;;;;;;;23.90;99.90;;;;;;5061014;28;19939;-92
2023/08/05 11:29:26;;;;;;;;;;;23.80;99.90;;;;;;5061914;28;19957;-92
2023/08/05 11:31:56;;;;;;;;;;;23.70;99.90;;;;;;5059782;28;20011;-92
2023/08/05 11:34:24;;;;;;;;;;;23.70;99.90;;;;;;5059389;28;19983;-90
2023/08/05 11:36:57;;;;;;;;;;;23.40;99.90;;;;;;5064458;28;19921;-88
2023/08/05 11:39:23;;;;;;;;;;;23.10;99.90;;;;;;5071411;28;19959;-89
2023/08/05 11:41:49;;;;;;;;;;;22.80;99.90;;;;;;5063402;28;19947;-89
2023/08/05 11:44:36;;;;;;;;;;;22.50;99.90;;;;;;5062013;28;19994;-89
2023/08/05 11:47:17;;;;;;;;;;;22.20;99.90;;;;;;5066272;28;19916;-93
2023/08/05 11:49:50;;;;;;;;;;;21.90;99.90;;;;;;5062859;28;19978;-92
2023/08/05 11:52:15;;;;;;;;;;;21.60;99.90;;;;;;5067871;28;19943;-93
2023/08/05 11:55:13;;;;;;;;;;;21.30;99.90;;;;;;5051969;28;19956;-92
2023/08/05 11:57:39;;;;;;;;;;;21.00;99.90;;;;;;5068686;28;19920;-91
2023/08/05 12:00:09;;;;;;;;;;;20.70;99.90;;;;;;5065942;28;20046;-91
2023/08/05 12:02:38;;;;;;;;;;;20.10;99.90;;;;;;5067447;28;19916;-90
2023/08/05 12:05:34;;;;;;;;;;;19.30;99.90;;;;;;5061203;28;20380;-91
2023/08/05 12:08:02;;;;;;;;;;;18.60;99.90;;;;;;5082413;28;20336;-91
2023/08/05 12:10:55;;;;;;;;;;;18.00;99.90;;;;;;5069202;28;19912;-89
2023/08/05 12:13:31;;;;;;;;;;;17.80;99.90;;;;;;5085584;28;19917;-90
2023/08/05 12:16:06;;;;;;;;;;;17.70;99.90;;;;;;5063001;28;19926;-93
2023/08/05 12:19:01;;;;;;;;;;;17.60;99.90;;;;;;5063486;28;19912;-91
2023/08/05 12:21:27;;;;;;;;;;;17.50;99.90;;;;;;5068649;28;19963;-91
2023/08/05 12:23:55;;;;;;;;;;;17.60;99.90;;;;;;5070040;28;19962;-91
2023/08/05 12:26:27;;;;;;;;;;;17.60;99.90;;;;;;5044440;28;19927;-91
2023/08/05 12:28:53;;;;;;;;;;;17.60;99.90;;;;;;5061263;28;20191;-91
2023/08/05 12:31:19;;;;;;;;;;;17.70;99.90;;;;;;5065780;28;19929;-92
2023/08/05 12:33:53;;;;;;;;;;;17.80;99.90;;;;;;5066121;28;19988;-91
2023/08/05 12:36:18;;;;;;;;;;;17.80;99.90;;;;;;5064335;28;20348;-91
2023/08/05 12:38:48;;;;;;;;;;;17.80;99.90;;;;;;5059851;28;19921;-90
2023/08/05 12:41:30;;;;;;;;;;;17.80;99.90;;;;;;5062333;28;19908;-88
2023/08/05 12:44:04;;;;;;;;;;;17.90;99.90;;;;;;5061352;28;19956;-91
2023/08/05 12:46:50;;;;;;;;;;;17.90;99.90;;;;;;5064227;28;20054;-92
2023/08/05 12:49:19;;;;;;;;;;;17.90;99.90;;;;;;5064130;28;19928;-91
2023/08/05 12:52:05;;;;;;;;;;;17.90;99.90;;;;;;5078450;28;19916;-90
2023/08/05 12:54:35;;;;;;;;;;;17.90;99.90;;;;;;5063738;28;19978;-91
2023/08/05 12:57:05;;;;;;;;;;;17.90;99.90;;;;;;5063379;28;20352;-89
2023/08/05 12:59:34;;;;;;;;;;;18.00;99.90;;;;;;5059540;28;19916;-89
2023/08/05 13:02:02;;;;;;;;;;;18.00;99.90;;;;;;5067034;28;19920;-91
2023/08/05 13:04:32;;;;;;;;;;;17.90;99.90;;;;;;5063697;28;19913;-91
2023/08/05 13:07:08;;;;;;;;;;;17.90;99.90;;;;;;5062944;28;19909;-91
2023/08/05 13:09:39;;;;;;;;;;;17.90;99.90;;;;;;5063534;28;19916;-89
2023/08/05 13:12:18;;;;;;;;;;;17.90;99.90;;;;;;5046494;28;19916;-90
2023/08/05 13:14:46;;;;;;;;;;;17.80;99.90;;;;;;5064713;28;19920;-90
2023/08/05 13:17:15;;;;;;;;;;;17.80;99.90;;;;;;5049282;28;20275;-90
2023/08/05 13:19:43;;;;;;;;;;;17.80;99.90;;;;;;5044306;28;19912;-91
2023/08/05 13:22:12;;;;;;;;;;;17.80;99.90;;;;;;5058017;28;19921;-90
2023/08/05 13:24:47;;;;;;;;;;;17.70;99.90;;;;;;5061845;28;20384;-90
2023/08/05 13:27:13;;;;;;;;;;;17.60;99.90;;;;;;5060799;28;19912;-90
2023/08/05 13:30:08;;;;;;;;;;;17.50;99.90;;;;;;5065351;28;20257;-90
2023/08/05 13:32:39;;;;;;;;;;;17.40;99.90;;;;;;5057512;28;19924;-91
2023/08/05 13:35:10;;;;;;;;;;;17.40;99.90;;;;;;5065413;28;19908;-90
2023/08/05 13:37:36;;;;;;;;;;;17.20;99.90;;;;;;5065641;28;19921;-90
2023/08/05 13:40:01;;;;;;;;;;;17.00;99.90;;;;;;5060150;28;20547;-90
2023/08/05 13:42:34;;;;;;;;;;;16.90;99.90;;;;;;5062812;28;19924;-90
2023/08/05 13:45:00;;;;;;;;;;;16.70;99.90;;;;;;5061312;28;19961;-90
2023/08/05 13:47:34;;;;;;;;;;;16.60;99.90;;;;;;5061572;28;19913;-89
2023/08/05 13:50:13;;;;;;;;;;;16.60;99.90;;;;;;5063782;28;19925;-89
2023/08/05 13:52:42;;;;;;;;;;;16.60;99.90;;;;;;5065393;28;19916;-88
2023/08/05 13:55:08;;;;;;;;;;;16.60;99.90;;;;;;5060047;28;20014;-88
2023/08/05 13:57:33;;;;;;;;;;;16.50;99.90;;;;;;5046425;28;20440;-89
2023/08/05 14:00:01;;;;;;;;;;;16.50;99.90;;;;;;5059546;28;19943;-88
2023/08/05 14:02:30;;;;;;;;;;;16.50;99.90;;;;;;5056503;28;19920;-90
2023/08/05 14:04:59;;;;;;;;;;;16.50;99.90;;;;;;5046046;28;20011;-89
2023/08/05 14:07:39;;;;;;;;;;;16.50;99.90;;;;;;5061157;28;19924;-89
2023/08/05 14:10:05;;;;;;;;;;;16.60;99.90;;;;;;5063265;28;20014;-90
2023/08/05 14:12:39;;;;;;;;;;;16.70;99.90;;;;;;5059303;28;20650;-89
2023/08/05 14:15:08;;;;;;;;;;;16.80;99.90;;;;;;5061847;28;19912;-89
2023/08/05 14:17:35;;;;;;;;;;;17.00;99.90;;;;;;5061356;28;19917;-89
2023/08/05 14:20:06;;;;;;;;;;;17.10;99.90;;;;;;5061278;28;19908;-90
2023/08/05 14:22:38;;;;;;;;;;;17.20;99.90;;;;;;5060561;28;19912;-89
2023/08/05 14:25:08;;;;;;;;;;;17.20;99.90;;;;;;5043630;28;19917;-90
2023/08/05 14:27:37;;;;;;;;;;;17.20;99.90;;;;;;5059373;28;19944;-89
2023/08/05 14:30:07;;;;;;;;;;;17.00;99.90;;;;;;5044490;28;19921;-89
2023/08/05 14:32:38;;;;;;;;;;;17.00;99.90;;;;;;5044642;28;19916;-89